Hobart, Oklahoma
Current Conditions -  °F | °C
As of 7:53 AM on Thursday 30 Oct 2014 (Local Time) from KHBR Reporting Station
Clear Clear  
Wind Chill: 51°   Ceiling: Unl
Heat Index: 51°   Visibility: 10mi
Dew Point: 41°   Wind: 7mph
Humidity: 68%   Direction: 210°SSW
Pressure: 30.12"   Gusts: NA
Location:  35.03°N, 99.09°W
Report Text: KHBR 301253Z AUTO 21006KT 10SM CLR 11/05 A3012 RMK AO2 SLP197 T01060050
Loading
Personal Weather Stations






























Interactive Weather Map New forecast layout! Learn more

10-Day Weather Forecast

Advertisements
Track Severe Weather on mobile